sensor_id;sensor_type;location;lat;lon;timestamp;P1;durP1;ratioP1;P2;durP2;ratioP2
8423;SDS011;4249;49.072;9.770;2022-10-16T00:02:20;1.80;;;1.40;;
8423;SDS011;4249;49.072;9.770;2022-10-16T00:05:09;1.97;;;1.43;;
8423;SDS011;4249;49.072;9.770;2022-10-16T00:07:56;3.83;;;1.58;;
8423;SDS011;4249;49.072;9.770;2022-10-16T00:10:43;1.52;;;1.42;;
8423;SDS011;4249;49.072;9.770;2022-10-16T00:13:30;1.73;;;1.38;;
8423;SDS011;4249;49.072;9.770;2022-10-16T00:16:18;2.03;;;1.45;;
8423;SDS011;4249;49.072;9.770;2022-10-16T00:19:05;1.80;;;1.40;;
8423;SDS011;4249;49.072;9.770;2022-10-16T00:21:54;1.60;;;1.47;;
8423;SDS011;4249;49.072;9.770;2022-10-16T00:24:41;1.60;;;1.50;;
8423;SDS011;4249;49.072;9.770;2022-10-16T00:27:28;1.80;;;1.60;;
8423;SDS011;4249;49.072;9.770;2022-10-16T00:30:15;3.80;;;1.80;;
8423;SDS011;4249;49.072;9.770;2022-10-16T00:33:03;2.53;;;1.63;;
8423;SDS011;4249;49.072;9.770;2022-10-16T00:35:50;3.67;;;1.77;;
8423;SDS011;4249;49.072;9.770;2022-10-16T00:38:39;1.40;;;1.30;;
8423;SDS011;4249;49.072;9.770;2022-10-16T00:41:26;1.98;;;1.70;;
8423;SDS011;4249;49.072;9.770;2022-10-16T00:47:36;2.08;;;1.50;;
8423;SDS011;4249;49.072;9.770;2022-10-16T00:50:26;4.97;;;1.83;;
8423;SDS011;4249;49.072;9.770;2022-10-16T00:53:16;3.45;;;1.92;;
8423;SDS011;4249;49.072;9.770;2022-10-16T00:56:05;2.93;;;1.50;;
8423;SDS011;4249;49.072;9.770;2022-10-16T00:58:53;2.20;;;1.70;;
8423;SDS011;4249;49.072;9.770;2022-10-16T01:01:40;3.55;;;1.50;;
8423;SDS011;4249;49.072;9.770;2022-10-16T01:04:28;2.72;;;1.50;;
8423;SDS011;4249;49.072;9.770;2022-10-16T01:07:20;1.87;;;1.77;;
8423;SDS011;4249;49.072;9.770;2022-10-16T01:10:21;2.00;;;1.70;;
8423;SDS011;4249;49.072;9.770;2022-10-16T01:13:17;2.73;;;1.63;;
8423;SDS011;4249;49.072;9.770;2022-10-16T01:16:09;2.65;;;1.58;;
8423;SDS011;4249;49.072;9.770;2022-10-16T01:19:01;1.50;;;1.40;;
8423;SDS011;4249;49.072;9.770;2022-10-16T01:21:55;1.77;;;1.65;;
8423;SDS011;4249;49.072;9.770;2022-10-16T01:24:45;1.48;;;1.38;;
8423;SDS011;4249;49.072;9.770;2022-10-16T01:27:36;2.65;;;1.52;;
8423;SDS011;4249;49.072;9.770;2022-10-16T01:30:27;2.30;;;1.60;;
8423;SDS011;4249;49.072;9.770;2022-10-16T01:33:19;2.15;;;1.38;;
8423;SDS011;4249;49.072;9.770;2022-10-16T01:36:09;1.65;;;1.52;;
8423;SDS011;4249;49.072;9.770;2022-10-16T01:39:00;4.45;;;1.77;;
8423;SDS011;4249;49.072;9.770;2022-10-16T01:41:51;2.90;;;1.58;;
8423;SDS011;4249;49.072;9.770;2022-10-16T01:44:45;1.83;;;1.70;;
8423;SDS011;4249;49.072;9.770;2022-10-16T01:47:33;3.63;;;1.80;;
8423;SDS011;4249;49.072;9.770;2022-10-16T01:50:22;1.50;;;1.40;;
8423;SDS011;4249;49.072;9.770;2022-10-16T01:53:11;1.50;;;1.40;;
8423;SDS011;4249;49.072;9.770;2022-10-16T01:56:01;1.85;;;1.60;;
8423;SDS011;4249;49.072;9.770;2022-10-16T01:58:52;2.50;;;1.50;;
8423;SDS011;4249;49.072;9.770;2022-10-16T02:01:44;2.57;;;1.30;;
8423;SDS011;4249;49.072;9.770;2022-10-16T02:04:36;2.75;;;1.42;;
8423;SDS011;4249;49.072;9.770;2022-10-16T02:07:28;2.65;;;1.30;;
8423;SDS011;4249;49.072;9.770;2022-10-16T02:10:16;2.92;;;1.70;;
8423;SDS011;4249;49.072;9.770;2022-10-16T02:13:05;2.03;;;1.42;;
8423;SDS011;4249;49.072;9.770;2022-10-16T02:15:54;2.38;;;1.75;;
8423;SDS011;4249;49.072;9.770;2022-10-16T02:18:43;2.90;;;1.53;;
8423;SDS011;4249;49.072;9.770;2022-10-16T02:21:32;2.45;;;1.40;;
8423;SDS011;4249;49.072;9.770;2022-10-16T02:24:28;1.50;;;1.17;;
8423;SDS011;4249;49.072;9.770;2022-10-16T02:27:20;1.93;;;1.50;;
8423;SDS011;4249;49.072;9.770;2022-10-16T02:30:12;4.20;;;1.45;;
8423;SDS011;4249;49.072;9.770;2022-10-16T02:33:02;1.58;;;1.20;;
8423;SDS011;4249;49.072;9.770;2022-10-16T02:35:54;2.85;;;1.50;;
8423;SDS011;4249;49.072;9.770;2022-10-16T02:38:42;2.70;;;1.60;;
8423;SDS011;4249;49.072;9.770;2022-10-16T02:41:31;1.50;;;1.40;;
8423;SDS011;4249;49.072;9.770;2022-10-16T02:44:18;2.28;;;1.50;;
8423;SDS011;4249;49.072;9.770;2022-10-16T02:47:06;3.20;;;1.60;;
8423;SDS011;4249;49.072;9.770;2022-10-16T02:49:53;1.92;;;1.02;;
8423;SDS011;4249;49.072;9.770;2022-10-16T02:52:41;2.13;;;1.23;;
8423;SDS011;4249;49.072;9.770;2022-10-16T02:55:29;2.47;;;1.55;;
8423;SDS011;4249;49.072;9.770;2022-10-16T02:58:16;2.67;;;1.85;;
8423;SDS011;4249;49.072;9.770;2022-10-16T03:01:03;2.67;;;1.30;;
8423;SDS011;4249;49.072;9.770;2022-10-16T03:03:50;2.13;;;1.30;;
8423;SDS011;4249;49.072;9.770;2022-10-16T03:06:37;2.10;;;1.10;;
8423;SDS011;4249;49.072;9.770;2022-10-16T03:09:26;1.43;;;1.33;;
8423;SDS011;4249;49.072;9.770;2022-10-16T03:12:13;1.50;;;1.40;;
8423;SDS011;4249;49.072;9.770;2022-10-16T03:15:00;1.50;;;1.40;;
8423;SDS011;4249;49.072;9.770;2022-10-16T03:17:47;4.68;;;1.60;;
8423;SDS011;4249;49.072;9.770;2022-10-16T03:20:35;2.70;;;1.30;;
8423;SDS011;4249;49.072;9.770;2022-10-16T03:23:22;2.65;;;1.48;;
8423;SDS011;4249;49.072;9.770;2022-10-16T03:26:10;1.30;;;1.20;;
8423;SDS011;4249;49.072;9.770;2022-10-16T03:28:57;1.23;;;1.10;;
8423;SDS011;4249;49.072;9.770;2022-10-16T03:31:45;3.65;;;1.35;;
8423;SDS011;4249;49.072;9.770;2022-10-16T03:34:33;1.93;;;1.20;;
8423;SDS011;4249;49.072;9.770;2022-10-16T03:37:21;2.33;;;1.20;;
8423;SDS011;4249;49.072;9.770;2022-10-16T03:40:09;2.38;;;1.20;;
8423;SDS011;4249;49.072;9.770;2022-10-16T03:42:58;2.40;;;1.15;;
8423;SDS011;4249;49.072;9.770;2022-10-16T03:45:45;2.70;;;1.08;;
8423;SDS011;4249;49.072;9.770;2022-10-16T03:48:32;1.85;;;1.27;;
8423;SDS011;4249;49.072;9.770;2022-10-16T03:51:20;1.58;;;1.38;;
8423;SDS011;4249;49.072;9.770;2022-10-16T03:54:07;1.70;;;1.27;;
8423;SDS011;4249;49.072;9.770;2022-10-16T03:56:54;1.58;;;1.23;;
8423;SDS011;4249;49.072;9.770;2022-10-16T03:59:42;6.07;;;1.43;;
8423;SDS011;4249;49.072;9.770;2022-10-16T04:02:29;1.08;;;1.00;;
8423;SDS011;4249;49.072;9.770;2022-10-16T04:05:17;1.10;;;1.05;;
8423;SDS011;4249;49.072;9.770;2022-10-16T04:08:04;1.13;;;1.05;;
8423;SDS011;4249;49.072;9.770;2022-10-16T04:10:51;2.93;;;1.40;;
8423;SDS011;4249;49.072;9.770;2022-10-16T04:13:38;3.57;;;1.00;;
8423;SDS011;4249;49.072;9.770;2022-10-16T04:16:28;4.00;;;1.70;;
8423;SDS011;4249;49.072;9.770;2022-10-16T04:19:15;1.45;;;1.35;;
8423;SDS011;4249;49.072;9.770;2022-10-16T04:22:02;1.27;;;1.17;;
8423;SDS011;4249;49.072;9.770;2022-10-16T04:24:49;2.97;;;1.40;;
8423;SDS011;4249;49.072;9.770;2022-10-16T04:27:37;1.88;;;1.30;;
8423;SDS011;4249;49.072;9.770;2022-10-16T04:30:24;1.47;;;1.37;;
8423;SDS011;4249;49.072;9.770;2022-10-16T04:33:15;3.95;;;1.50;;
8423;SDS011;4249;49.072;9.770;2022-10-16T04:36:02;2.93;;;1.50;;
8423;SDS011;4249;49.072;9.770;2022-10-16T04:38:50;1.23;;;1.13;;
8423;SDS011;4249;49.072;9.770;2022-10-16T04:41:37;4.50;;;1.63;;
8423;SDS011;4249;49.072;9.770;2022-10-16T04:44:24;2.03;;;1.50;;
8423;SDS011;4249;49.072;9.770;2022-10-16T04:47:11;2.60;;;1.47;;
8423;SDS011;4249;49.072;9.770;2022-10-16T04:50:01;2.17;;;1.73;;
8423;SDS011;4249;49.072;9.770;2022-10-16T04:52:48;4.07;;;1.93;;
8423;SDS011;4249;49.072;9.770;2022-10-16T04:55:35;3.20;;;1.77;;
8423;SDS011;4249;49.072;9.770;2022-10-16T04:58:23;2.23;;;1.60;;
8423;SDS011;4249;49.072;9.770;2022-10-16T05:01:10;2.50;;;1.80;;
8423;SDS011;4249;49.072;9.770;2022-10-16T05:03:57;1.67;;;1.50;;
8423;SDS011;4249;49.072;9.770;2022-10-16T05:06:47;3.83;;;1.50;;
8423;SDS011;4249;49.072;9.770;2022-10-16T05:09:34;1.40;;;1.30;;
8423;SDS011;4249;49.072;9.770;2022-10-16T05:12:21;1.60;;;1.50;;
8423;SDS011;4249;49.072;9.770;2022-10-16T05:15:09;3.07;;;1.80;;
8423;SDS011;4249;49.072;9.770;2022-10-16T05:17:56;1.50;;;1.40;;
8423;SDS011;4249;49.072;9.770;2022-10-16T05:20:43;1.47;;;1.37;;
8423;SDS011;4249;49.072;9.770;2022-10-16T05:23:32;1.80;;;1.67;;
8423;SDS011;4249;49.072;9.770;2022-10-16T05:26:19;2.10;;;1.87;;
8423;SDS011;4249;49.072;9.770;2022-10-16T05:29:07;3.17;;;1.40;;
8423;SDS011;4249;49.072;9.770;2022-10-16T05:31:54;3.90;;;1.53;;
8423;SDS011;4249;49.072;9.770;2022-10-16T05:34:41;3.60;;;1.90;;
8423;SDS011;4249;49.072;9.770;2022-10-16T05:37:28;2.00;;;1.80;;
8423;SDS011;4249;49.072;9.770;2022-10-16T05:40:17;2.20;;;2.00;;
8423;SDS011;4249;49.072;9.770;2022-10-16T05:43:04;2.27;;;2.00;;
8423;SDS011;4249;49.072;9.770;2022-10-16T05:45:55;4.23;;;2.60;;
8423;SDS011;4249;49.072;9.770;2022-10-16T05:48:42;3.23;;;2.57;;
8423;SDS011;4249;49.072;9.770;2022-10-16T05:51:30;5.70;;;4.13;;
8423;SDS011;4249;49.072;9.770;2022-10-16T05:54:17;16.23;;;10.70;;
8423;SDS011;4249;49.072;9.770;2022-10-16T05:57:06;20.80;;;12.83;;
8423;SDS011;4249;49.072;9.770;2022-10-16T05:59:53;21.93;;;12.00;;
8423;SDS011;4249;49.072;9.770;2022-10-16T06:02:40;14.67;;;8.93;;
8423;SDS011;4249;49.072;9.770;2022-10-16T06:05:27;7.60;;;6.30;;
8423;SDS011;4249;49.072;9.770;2022-10-16T06:08:14;11.00;;;7.53;;
8423;SDS011;4249;49.072;9.770;2022-10-16T06:11:02;14.30;;;8.63;;
8423;SDS011;4249;49.072;9.770;2022-10-16T06:13:51;15.47;;;8.53;;
8423;SDS011;4249;49.072;9.770;2022-10-16T06:16:39;11.77;;;8.23;;
8423;SDS011;4249;49.072;9.770;2022-10-16T06:19:26;20.43;;;12.97;;
8423;SDS011;4249;49.072;9.770;2022-10-16T06:22:14;22.07;;;13.27;;
8423;SDS011;4249;49.072;9.770;2022-10-16T06:25:01;13.10;;;9.17;;
8423;SDS011;4249;49.072;9.770;2022-10-16T06:27:48;10.13;;;7.20;;
8423;SDS011;4249;49.072;9.770;2022-10-16T06:30:37;10.63;;;6.30;;
8423;SDS011;4249;49.072;9.770;2022-10-16T06:33:24;8.87;;;4.97;;
8423;SDS011;4249;49.072;9.770;2022-10-16T06:36:12;9.83;;;4.50;;
8423;SDS011;4249;49.072;9.770;2022-10-16T06:39:00;10.23;;;4.77;;
8423;SDS011;4249;49.072;9.770;2022-10-16T06:41:47;11.07;;;5.97;;
8423;SDS011;4249;49.072;9.770;2022-10-16T06:44:34;11.97;;;6.30;;
8423;SDS011;4249;49.072;9.770;2022-10-16T06:47:23;5.05;;;3.67;;
8423;SDS011;4249;49.072;9.770;2022-10-16T06:50:10;4.10;;;3.65;;
8423;SDS011;4249;49.072;9.770;2022-10-16T06:52:57;5.85;;;3.72;;
8423;SDS011;4249;49.072;9.770;2022-10-16T06:55:44;5.20;;;4.20;;
8423;SDS011;4249;49.072;9.770;2022-10-16T06:58:31;52.58;;;25.75;;
8423;SDS011;4249;49.072;9.770;2022-10-16T07:01:19;34.10;;;16.25;;
8423;SDS011;4249;49.072;9.770;2022-10-16T07:04:09;32.40;;;15.73;;
8423;SDS011;4249;49.072;9.770;2022-10-16T07:06:56;28.93;;;15.87;;
8423;SDS011;4249;49.072;9.770;2022-10-16T07:09:43;19.23;;;9.00;;
8423;SDS011;4249;49.072;9.770;2022-10-16T07:12:30;5.93;;;4.13;;
8423;SDS011;4249;49.072;9.770;2022-10-16T07:15:17;6.65;;;4.22;;
8423;SDS011;4249;49.072;9.770;2022-10-16T07:18:04;8.68;;;4.25;;
8423;SDS011;4249;49.072;9.770;2022-10-16T07:20:53;5.63;;;3.67;;
8423;SDS011;4249;49.072;9.770;2022-10-16T07:23:50;3.58;;;3.13;;
8423;SDS011;4249;49.072;9.770;2022-10-16T07:26:38;7.15;;;3.95;;
8423;SDS011;4249;49.072;9.770;2022-10-16T07:29:26;3.83;;;3.17;;
8423;SDS011;4249;49.072;9.770;2022-10-16T07:32:13;5.50;;;3.10;;
8423;SDS011;4249;49.072;9.770;2022-10-16T07:35:00;6.78;;;3.20;;
8423;SDS011;4249;49.072;9.770;2022-10-16T07:37:49;3.65;;;3.00;;
8423;SDS011;4249;49.072;9.770;2022-10-16T07:40:36;6.32;;;3.00;;
8423;SDS011;4249;49.072;9.770;2022-10-16T07:43:23;4.88;;;3.03;;
8423;SDS011;4249;49.072;9.770;2022-10-16T07:46:11;6.05;;;2.75;;
8423;SDS011;4249;49.072;9.770;2022-10-16T07:48:58;2.95;;;2.15;;
8423;SDS011;4249;49.072;9.770;2022-10-16T07:51:45;4.72;;;2.55;;
8423;SDS011;4249;49.072;9.770;2022-10-16T07:54:33;3.40;;;2.70;;
8423;SDS011;4249;49.072;9.770;2022-10-16T07:57:21;3.35;;;2.33;;
8423;SDS011;4249;49.072;9.770;2022-10-16T08:00:08;5.22;;;2.50;;
8423;SDS011;4249;49.072;9.770;2022-10-16T08:02:58;4.28;;;2.30;;
8423;SDS011;4249;49.072;9.770;2022-10-16T08:05:46;2.90;;;2.15;;
8423;SDS011;4249;49.072;9.770;2022-10-16T08:08:33;5.22;;;3.75;;
8423;SDS011;4249;49.072;9.770;2022-10-16T08:11:22;2.90;;;2.70;;
8423;SDS011;4249;49.072;9.770;2022-10-16T08:14:09;2.33;;;2.13;;
8423;SDS011;4249;49.072;9.770;2022-10-16T08:16:56;4.00;;;2.35;;
8423;SDS011;4249;49.072;9.770;2022-10-16T08:19:44;3.83;;;3.03;;
8423;SDS011;4249;49.072;9.770;2022-10-16T08:22:32;2.50;;;2.30;;
8423;SDS011;4249;49.072;9.770;2022-10-16T08:25:19;3.50;;;2.70;;
8423;SDS011;4249;49.072;9.770;2022-10-16T08:28:09;5.60;;;4.55;;
8423;SDS011;4249;49.072;9.770;2022-10-16T08:31:04;3.55;;;2.83;;
8423;SDS011;4249;49.072;9.770;2022-10-16T08:33:52;7.18;;;3.80;;
8423;SDS011;4249;49.072;9.770;2022-10-16T08:36:39;4.45;;;2.45;;
8423;SDS011;4249;49.072;9.770;2022-10-16T08:39:26;7.25;;;2.50;;
8423;SDS011;4249;49.072;9.770;2022-10-16T08:42:16;2.15;;;1.95;;
8423;SDS011;4249;49.072;9.770;2022-10-16T08:45:23;3.33;;;2.22;;
8423;SDS011;4249;49.072;9.770;2022-10-16T08:48:20;2.33;;;1.90;;
8423;SDS011;4249;49.072;9.770;2022-10-16T08:51:12;2.40;;;1.85;;
8423;SDS011;4249;49.072;9.770;2022-10-16T08:54:10;2.53;;;2.33;;
8423;SDS011;4249;49.072;9.770;2022-10-16T08:57:09;2.38;;;2.17;;
8423;SDS011;4249;49.072;9.770;2022-10-16T09:00:00;3.38;;;2.70;;
8423;SDS011;4249;49.072;9.770;2022-10-16T09:02:59;2.78;;;1.73;;
8423;SDS011;4249;49.072;9.770;2022-10-16T09:05:54;4.47;;;2.40;;
8423;SDS011;4249;49.072;9.770;2022-10-16T09:08:52;5.47;;;1.90;;
8423;SDS011;4249;49.072;9.770;2022-10-16T09:11:50;2.75;;;1.90;;
8423;SDS011;4249;49.072;9.770;2022-10-16T09:14:48;1.42;;;1.33;;
8423;SDS011;4249;49.072;9.770;2022-10-16T09:17:44;6.63;;;1.80;;
8423;SDS011;4249;49.072;9.770;2022-10-16T09:20:40;2.05;;;1.80;;
8423;SDS011;4249;49.072;9.770;2022-10-16T09:23:34;3.20;;;1.67;;
8423;SDS011;4249;49.072;9.770;2022-10-16T09:26:22;2.05;;;1.80;;
8423;SDS011;4249;49.072;9.770;2022-10-16T09:29:10;2.65;;;1.60;;
8423;SDS011;4249;49.072;9.770;2022-10-16T09:32:05;2.53;;;1.48;;
8423;SDS011;4249;49.072;9.770;2022-10-16T09:34:56;3.38;;;1.50;;
8423;SDS011;4249;49.072;9.770;2022-10-16T09:37:45;2.38;;;1.80;;
8423;SDS011;4249;49.072;9.770;2022-10-16T09:40:35;1.70;;;1.58;;
8423;SDS011;4249;49.072;9.770;2022-10-16T09:43:24;3.60;;;1.50;;
8423;SDS011;4249;49.072;9.770;2022-10-16T09:46:27;3.00;;;1.60;;
8423;SDS011;4249;49.072;9.770;2022-10-16T09:49:19;3.03;;;2.08;;
8423;SDS011;4249;49.072;9.770;2022-10-16T09:52:11;2.45;;;2.10;;
8423;SDS011;4249;49.072;9.770;2022-10-16T09:55:08;3.15;;;1.60;;
8423;SDS011;4249;49.072;9.770;2022-10-16T09:58:01;1.63;;;1.50;;
8423;SDS011;4249;49.072;9.770;2022-10-16T10:00:48;5.75;;;1.95;;
8423;SDS011;4249;49.072;9.770;2022-10-16T10:03:39;2.00;;;1.38;;
8423;SDS011;4249;49.072;9.770;2022-10-16T10:06:28;1.33;;;1.23;;
8423;SDS011;4249;49.072;9.770;2022-10-16T10:09:18;2.63;;;1.60;;
8423;SDS011;4249;49.072;9.770;2022-10-16T10:12:16;2.97;;;1.80;;
8423;SDS011;4249;49.072;9.770;2022-10-16T10:15:06;3.50;;;1.88;;
8423;SDS011;4249;49.072;9.770;2022-10-16T10:17:57;4.88;;;1.50;;
8423;SDS011;4249;49.072;9.770;2022-10-16T10:20:45;4.20;;;1.80;;
8423;SDS011;4249;49.072;9.770;2022-10-16T10:23:43;3.53;;;1.77;;
8423;SDS011;4249;49.072;9.770;2022-10-16T10:26:30;4.32;;;1.90;;
8423;SDS011;4249;49.072;9.770;2022-10-16T10:29:23;2.22;;;1.60;;
8423;SDS011;4249;49.072;9.770;2022-10-16T10:32:23;6.40;;;1.98;;
8423;SDS011;4249;49.072;9.770;2022-10-16T10:35:15;1.92;;;1.20;;
8423;SDS011;4249;49.072;9.770;2022-10-16T10:38:12;2.80;;;1.95;;
8423;SDS011;4249;49.072;9.770;2022-10-16T10:41:19;1.30;;;1.23;;
8423;SDS011;4249;49.072;9.770;2022-10-16T10:44:37;3.47;;;1.80;;
8423;SDS011;4249;49.072;9.770;2022-10-16T10:47:46;3.97;;;1.90;;
8423;SDS011;4249;49.072;9.770;2022-10-16T10:50:42;3.22;;;1.35;;
8423;SDS011;4249;49.072;9.770;2022-10-16T10:53:36;1.48;;;1.38;;
8423;SDS011;4249;49.072;9.770;2022-10-16T10:56:36;1.45;;;1.35;;
8423;SDS011;4249;49.072;9.770;2022-10-16T10:59:37;1.80;;;1.63;;
8423;SDS011;4249;49.072;9.770;2022-10-16T11:02:42;2.75;;;1.50;;
8423;SDS011;4249;49.072;9.770;2022-10-16T11:05:41;3.15;;;1.80;;
8423;SDS011;4249;49.072;9.770;2022-10-16T11:08:32;3.80;;;1.90;;
8423;SDS011;4249;49.072;9.770;2022-10-16T11:11:23;2.17;;;1.77;;
8423;SDS011;4249;49.072;9.770;2022-10-16T11:14:17;2.85;;;1.75;;
8423;SDS011;4249;49.072;9.770;2022-10-16T11:17:10;4.72;;;1.80;;
8423;SDS011;4249;49.072;9.770;2022-10-16T11:20:03;1.63;;;1.45;;
8423;SDS011;4249;49.072;9.770;2022-10-16T11:23:00;2.88;;;1.60;;
8423;SDS011;4249;49.072;9.770;2022-10-16T11:25:59;1.70;;;1.60;;
8423;SDS011;4249;49.072;9.770;2022-10-16T11:28:51;2.47;;;1.63;;
8423;SDS011;4249;49.072;9.770;2022-10-16T11:31:42;3.05;;;1.67;;
8423;SDS011;4249;49.072;9.770;2022-10-16T11:34:36;1.67;;;1.30;;
8423;SDS011;4249;49.072;9.770;2022-10-16T11:37:28;3.70;;;1.80;;
8423;SDS011;4249;49.072;9.770;2022-10-16T11:40:20;1.98;;;1.42;;
8423;SDS011;4249;49.072;9.770;2022-10-16T11:43:13;1.73;;;0.98;;
8423;SDS011;4249;49.072;9.770;2022-10-16T11:46:04;3.22;;;1.40;;
8423;SDS011;4249;49.072;9.770;2022-10-16T11:49:00;3.38;;;1.55;;
8423;SDS011;4249;49.072;9.770;2022-10-16T11:51:57;1.30;;;1.20;;
8423;SDS011;4249;49.072;9.770;2022-10-16T11:54:54;2.28;;;1.40;;
8423;SDS011;4249;49.072;9.770;2022-10-16T11:57:46;2.08;;;1.73;;
8423;SDS011;4249;49.072;9.770;2022-10-16T12:00:38;1.85;;;1.52;;
8423;SDS011;4249;49.072;9.770;2022-10-16T12:03:31;3.83;;;1.98;;
8423;SDS011;4249;49.072;9.770;2022-10-16T12:06:23;1.85;;;1.40;;
8423;SDS011;4249;49.072;9.770;2022-10-16T12:09:20;1.85;;;1.52;;
8423;SDS011;4249;49.072;9.770;2022-10-16T12:12:24;1.50;;;1.40;;
8423;SDS011;4249;49.072;9.770;2022-10-16T12:15:18;2.83;;;1.45;;
8423;SDS011;4249;49.072;9.770;2022-10-16T12:18:07;1.65;;;1.55;;
8423;SDS011;4249;49.072;9.770;2022-10-16T12:21:07;1.42;;;1.33;;
8423;SDS011;4249;49.072;9.770;2022-10-16T12:23:56;6.07;;;1.60;;
8423;SDS011;4249;49.072;9.770;2022-10-16T12:26:47;2.10;;;1.25;;
8423;SDS011;4249;49.072;9.770;2022-10-16T12:29:37;2.17;;;1.50;;
8423;SDS011;4249;49.072;9.770;2022-10-16T12:32:28;2.25;;;1.45;;
8423;SDS011;4249;49.072;9.770;2022-10-16T12:35:18;3.50;;;1.95;;
8423;SDS011;4249;49.072;9.770;2022-10-16T12:38:08;2.85;;;1.63;;
8423;SDS011;4249;49.072;9.770;2022-10-16T12:41:03;4.90;;;1.60;;
8423;SDS011;4249;49.072;9.770;2022-10-16T12:43:55;5.18;;;1.50;;
8423;SDS011;4249;49.072;9.770;2022-10-16T12:46:43;1.48;;;1.38;;
8423;SDS011;4249;49.072;9.770;2022-10-16T12:49:31;5.53;;;1.45;;
8423;SDS011;4249;49.072;9.770;2022-10-16T12:52:26;1.50;;;1.33;;
8423;SDS011;4249;49.072;9.770;2022-10-16T12:55:16;1.85;;;1.48;;
8423;SDS011;4249;49.072;9.770;2022-10-16T12:58:09;5.07;;;1.50;;
8423;SDS011;4249;49.072;9.770;2022-10-16T13:01:11;1.73;;;1.50;;
8423;SDS011;4249;49.072;9.770;2022-10-16T13:04:16;2.45;;;1.58;;
8423;SDS011;4249;49.072;9.770;2022-10-16T13:07:28;2.67;;;1.67;;
8423;SDS011;4249;49.072;9.770;2022-10-16T13:10:28;2.08;;;1.33;;
8423;SDS011;4249;49.072;9.770;2022-10-16T13:16:37;2.55;;;1.45;;
8423;SDS011;4249;49.072;9.770;2022-10-16T13:19:38;1.67;;;1.23;;
8423;SDS011;4249;49.072;9.770;2022-10-16T13:22:32;2.15;;;1.48;;
8423;SDS011;4249;49.072;9.770;2022-10-16T13:25:32;1.85;;;1.45;;
8423;SDS011;4249;49.072;9.770;2022-10-16T13:28:27;2.78;;;1.80;;
8423;SDS011;4249;49.072;9.770;2022-10-16T13:31:18;2.00;;;1.58;;
8423;SDS011;4249;49.072;9.770;2022-10-16T13:34:11;1.80;;;1.50;;
8423;SDS011;4249;49.072;9.770;2022-10-16T13:37:01;2.38;;;1.63;;
8423;SDS011;4249;49.072;9.770;2022-10-16T13:39:48;2.55;;;1.40;;
8423;SDS011;4249;49.072;9.770;2022-10-16T13:42:36;2.75;;;1.77;;
8423;SDS011;4249;49.072;9.770;2022-10-16T13:45:24;2.00;;;1.42;;
8423;SDS011;4249;49.072;9.770;2022-10-16T13:48:12;2.05;;;1.48;;
8423;SDS011;4249;49.072;9.770;2022-10-16T13:51:01;1.40;;;1.13;;
8423;SDS011;4249;49.072;9.770;2022-10-16T13:53:53;2.47;;;1.30;;
8423;SDS011;4249;49.072;9.770;2022-10-16T13:56:42;3.60;;;1.48;;
8423;SDS011;4249;49.072;9.770;2022-10-16T13:59:32;1.85;;;1.50;;
8423;SDS011;4249;49.072;9.770;2022-10-16T14:02:24;1.50;;;1.40;;
8423;SDS011;4249;49.072;9.770;2022-10-16T14:05:13;1.40;;;1.30;;
8423;SDS011;4249;49.072;9.770;2022-10-16T14:08:02;5.05;;;1.80;;
8423;SDS011;4249;49.072;9.770;2022-10-16T14:10:50;1.40;;;1.30;;
8423;SDS011;4249;49.072;9.770;2022-10-16T14:13:42;4.60;;;1.67;;
8423;SDS011;4249;49.072;9.770;2022-10-16T14:16:31;3.05;;;1.52;;
8423;SDS011;4249;49.072;9.770;2022-10-16T14:19:20;1.83;;;1.45;;
8423;SDS011;4249;49.072;9.770;2022-10-16T14:22:19;2.05;;;1.70;;
8423;SDS011;4249;49.072;9.770;2022-10-16T14:25:21;5.40;;;1.70;;
8423;SDS011;4249;49.072;9.770;2022-10-16T14:28:15;2.25;;;1.52;;
8423;SDS011;4249;49.072;9.770;2022-10-16T14:31:19;1.67;;;1.58;;
8423;SDS011;4249;49.072;9.770;2022-10-16T14:34:23;5.03;;;1.52;;
8423;SDS011;4249;49.072;9.770;2022-10-16T14:37:19;3.35;;;1.67;;
8423;SDS011;4249;49.072;9.770;2022-10-16T14:40:11;2.08;;;1.70;;
8423;SDS011;4249;49.072;9.770;2022-10-16T14:43:03;2.90;;;1.70;;
8423;SDS011;4249;49.072;9.770;2022-10-16T14:45:51;4.93;;;1.77;;
8423;SDS011;4249;49.072;9.770;2022-10-16T14:48:40;3.15;;;1.50;;
8423;SDS011;4249;49.072;9.770;2022-10-16T14:51:28;1.70;;;1.50;;
8423;SDS011;4249;49.072;9.770;2022-10-16T14:54:17;2.55;;;1.42;;
8423;SDS011;4249;49.072;9.770;2022-10-16T14:57:05;1.90;;;1.60;;
8423;SDS011;4249;49.072;9.770;2022-10-16T15:00:02;1.60;;;1.50;;
8423;SDS011;4249;49.072;9.770;2022-10-16T15:02:51;1.90;;;1.80;;
8423;SDS011;4249;49.072;9.770;2022-10-16T15:05:39;2.85;;;1.73;;
8423;SDS011;4249;49.072;9.770;2022-10-16T15:08:26;1.58;;;1.48;;
8423;SDS011;4249;49.072;9.770;2022-10-16T15:11:14;2.85;;;1.40;;
8423;SDS011;4249;49.072;9.770;2022-10-16T15:14:02;2.72;;;1.77;;
8423;SDS011;4249;49.072;9.770;2022-10-16T15:16:51;2.15;;;1.45;;
8423;SDS011;4249;49.072;9.770;2022-10-16T15:19:38;2.40;;;1.50;;
8423;SDS011;4249;49.072;9.770;2022-10-16T15:22:26;3.00;;;1.50;;
8423;SDS011;4249;49.072;9.770;2022-10-16T15:25:15;1.73;;;1.58;;
8423;SDS011;4249;49.072;9.770;2022-10-16T15:28:14;2.83;;;1.50;;
8423;SDS011;4249;49.072;9.770;2022-10-16T15:31:02;1.80;;;1.70;;
8423;SDS011;4249;49.072;9.770;2022-10-16T15:33:53;1.50;;;1.40;;
8423;SDS011;4249;49.072;9.770;2022-10-16T15:36:43;1.63;;;1.52;;
8423;SDS011;4249;49.072;9.770;2022-10-16T15:39:30;1.70;;;1.60;;
8423;SDS011;4249;49.072;9.770;2022-10-16T15:42:17;2.65;;;1.65;;
8423;SDS011;4249;49.072;9.770;2022-10-16T15:45:05;1.80;;;1.48;;
8423;SDS011;4249;49.072;9.770;2022-10-16T15:47:53;1.30;;;1.20;;
8423;SDS011;4249;49.072;9.770;2022-10-16T15:50:41;3.90;;;1.70;;
8423;SDS011;4249;49.072;9.770;2022-10-16T15:53:28;1.70;;;1.60;;
8423;SDS011;4249;49.072;9.770;2022-10-16T15:56:15;1.90;;;1.75;;
8423;SDS011;4249;49.072;9.770;2022-10-16T15:59:03;1.55;;;1.30;;
8423;SDS011;4249;49.072;9.770;2022-10-16T16:01:51;2.40;;;1.50;;
8423;SDS011;4249;49.072;9.770;2022-10-16T16:04:38;3.15;;;1.48;;
8423;SDS011;4249;49.072;9.770;2022-10-16T16:07:26;1.58;;;1.48;;
8423;SDS011;4249;49.072;9.770;2022-10-16T16:10:14;2.25;;;1.60;;
8423;SDS011;4249;49.072;9.770;2022-10-16T16:13:02;2.53;;;1.58;;
8423;SDS011;4249;49.072;9.770;2022-10-16T16:15:49;3.70;;;1.70;;
8423;SDS011;4249;49.072;9.770;2022-10-16T16:18:36;2.28;;;1.70;;
8423;SDS011;4249;49.072;9.770;2022-10-16T16:21:23;1.83;;;1.50;;
8423;SDS011;4249;49.072;9.770;2022-10-16T16:24:12;1.92;;;1.73;;
8423;SDS011;4249;49.072;9.770;2022-10-16T16:26:59;2.45;;;1.80;;
8423;SDS011;4249;49.072;9.770;2022-10-16T16:29:46;1.92;;;1.67;;
8423;SDS011;4249;49.072;9.770;2022-10-16T16:32:34;2.13;;;1.75;;
8423;SDS011;4249;49.072;9.770;2022-10-16T16:35:21;2.22;;;1.67;;
8423;SDS011;4249;49.072;9.770;2022-10-16T16:38:08;5.10;;;1.90;;
8423;SDS011;4249;49.072;9.770;2022-10-16T16:40:57;4.22;;;1.90;;
8423;SDS011;4249;49.072;9.770;2022-10-16T16:43:44;3.28;;;1.90;;
8423;SDS011;4249;49.072;9.770;2022-10-16T16:46:33;2.75;;;1.98;;
8423;SDS011;4249;49.072;9.770;2022-10-16T16:49:21;4.03;;;2.35;;
8423;SDS011;4249;49.072;9.770;2022-10-16T16:52:08;4.03;;;2.70;;
8423;SDS011;4249;49.072;9.770;2022-10-16T16:54:55;4.15;;;3.38;;
8423;SDS011;4249;49.072;9.770;2022-10-16T16:57:43;9.23;;;5.28;;
8423;SDS011;4249;49.072;9.770;2022-10-16T17:00:34;10.05;;;5.20;;
8423;SDS011;4249;49.072;9.770;2022-10-16T17:03:21;7.22;;;4.95;;
8423;SDS011;4249;49.072;9.770;2022-10-16T17:06:08;13.35;;;4.70;;
8423;SDS011;4249;49.072;9.770;2022-10-16T17:08:57;7.75;;;4.18;;
8423;SDS011;4249;49.072;9.770;2022-10-16T17:11:45;5.30;;;2.80;;
8423;SDS011;4249;49.072;9.770;2022-10-16T17:14:34;4.97;;;3.00;;
8423;SDS011;4249;49.072;9.770;2022-10-16T17:17:22;3.78;;;2.95;;
8423;SDS011;4249;49.072;9.770;2022-10-16T17:20:09;3.17;;;2.17;;
8423;SDS011;4249;49.072;9.770;2022-10-16T17:22:56;4.68;;;3.75;;
8423;SDS011;4249;49.072;9.770;2022-10-16T17:25:44;7.50;;;4.20;;
8423;SDS011;4249;49.072;9.770;2022-10-16T17:28:33;6.07;;;4.10;;
8423;SDS011;4249;49.072;9.770;2022-10-16T17:31:23;6.78;;;5.22;;
8423;SDS011;4249;49.072;9.770;2022-10-16T17:34:11;7.18;;;4.03;;
8423;SDS011;4249;49.072;9.770;2022-10-16T17:36:58;5.35;;;3.05;;
8423;SDS011;4249;49.072;9.770;2022-10-16T17:39:45;3.90;;;2.85;;
8423;SDS011;4249;49.072;9.770;2022-10-16T17:42:35;2.47;;;2.28;;
8423;SDS011;4249;49.072;9.770;2022-10-16T17:45:23;2.58;;;2.00;;